Time;durP1;ratioP1;P1;durP2;ratioP2;P2;SDS_P1;SDS_P2;PMS_P1;PMS_P2;Temp;Humidity;BMP_temperature;BMP_pressure;BME280_temperature;BME280_humidity;BME280_pressure;Samples;Min_cycle;Max_cycle;Signal;HPM_P1;HPM_P2
2024/01/26 00:00:05;;;;;;;34.58;10.38;;;;;;;-148.88;100.00;-17125.47;5073491;28;20056;-83
2024/01/26 00:02:31;;;;;;;28.35;8.73;;;;;;;-148.88;100.00;-17125.47;5074527;28;20031;-83
2024/01/26 00:04:56;;;;;;;34.22;10.30;;;;;;;-148.88;100.00;-17125.47;5073061;28;20028;-83
2024/01/26 00:07:21;;;;;;;25.02;7.53;;;;;;;-148.88;100.00;-17125.47;5074320;28;20111;-84
2024/01/26 00:09:47;;;;;;;26.42;8.70;;;;;;;-148.88;100.00;-17125.47;5074552;28;20055;-84
2024/01/26 00:12:12;;;;;;;40.50;17.33;;;;;;;-148.88;100.00;-17125.47;5073307;28;20070;-84
2024/01/26 00:14:37;;;;;;;25.80;7.88;;;;;;;-148.88;100.00;-17125.47;5073921;28;20364;-84
2024/01/26 00:17:03;;;;;;;23.73;7.97;;;;;;;-148.88;100.00;-17125.47;5074253;28;20483;-84
2024/01/26 00:19:28;;;;;;;25.77;7.93;;;;;;;-148.88;100.00;-17125.47;5074824;28;20017;-84
2024/01/26 00:21:53;;;;;;;20.80;7.63;;;;;;;-148.88;100.00;-17125.47;5074268;28;20025;-84
2024/01/26 00:24:19;;;;;;;24.23;7.40;;;;;;;-148.88;100.00;-17125.47;5073702;28;20386;-84
2024/01/26 00:26:46;;;;;;;23.52;6.22;;;;;;;-148.88;100.00;-17125.47;5074390;28;20475;-85
2024/01/26 00:29:12;;;;;;;18.75;6.85;;;;;;;-148.88;100.00;-17125.47;5073379;28;20154;-84
2024/01/26 00:31:37;;;;;;;19.10;6.82;;;;;;;-148.88;100.00;-17125.47;5073547;28;20056;-85
2024/01/26 00:34:02;;;;;;;22.33;5.88;;;;;;;-148.88;100.00;-17125.47;5074119;28;20104;-84
2024/01/26 00:36:28;;;;;;;16.08;6.00;;;;;;;-148.88;100.00;-17125.47;5074086;28;20025;-84
2024/01/26 00:38:53;;;;;;;15.85;6.18;;;;;;;-148.88;100.00;-17125.47;5074591;28;20048;-84
2024/01/26 00:41:18;;;;;;;17.65;5.78;;;;;;;-148.88;100.00;-17125.47;5074347;28;20103;-83
2024/01/26 00:43:44;;;;;;;18.95;6.03;;;;;;;-148.88;100.00;-17125.47;5072875;28;20031;-84
2024/01/26 00:46:09;;;;;;;24.73;11.30;;;;;;;-148.88;100.00;-17125.47;5071686;28;20020;-83
2024/01/26 00:48:34;;;;;;;18.55;4.85;;;;;;;-148.88;100.00;-17125.47;5073289;28;20141;-84
2024/01/26 00:51:00;;;;;;;15.57;6.80;;;;;;;-148.88;100.00;-17125.47;5071524;28;20111;-84
2024/01/26 00:53:25;;;;;;;28.83;11.32;;;;;;;-148.88;100.00;-17125.47;5072987;28;20028;-84
2024/01/26 00:55:51;;;;;;;29.33;12.18;;;;;;;-148.88;100.00;-17125.47;5072910;28;20024;-84
2024/01/26 00:58:17;;;;;;;17.30;6.55;;;;;;;-148.88;100.00;-17125.47;5073118;28;20027;-84
2024/01/26 01:00:42;;;;;;;17.13;5.75;;;;;;;-148.88;100.00;-17125.47;5072893;28;20047;-84
2024/01/26 01:03:07;;;;;;;18.17;6.13;;;;;;;-148.88;100.00;-17125.47;5072642;28;20456;-84
2024/01/26 01:05:33;;;;;;;12.85;5.97;;;;;;;-148.88;100.00;-17125.47;5072811;28;20082;-84
2024/01/26 01:07:58;;;;;;;18.75;6.05;;;;;;;-148.88;100.00;-17125.47;5072590;28;20028;-84
2024/01/26 01:10:24;;;;;;;13.35;6.05;;;;;;;-148.88;100.00;-17125.47;5072714;28;20025;-84
2024/01/26 01:12:50;;;;;;;21.75;6.82;;;;;;;-148.88;100.00;-17125.47;5072595;28;20024;-85
2024/01/26 01:15:17;;;;;;;29.60;14.93;;;;;;;-148.88;100.00;-17125.47;5072557;28;20055;-84
2024/01/26 01:17:43;;;;;;;20.98;6.45;;;;;;;-148.88;100.00;-17125.47;5072561;28;20047;-84
2024/01/26 01:20:10;;;;;;;23.48;7.97;;;;;;;-148.88;100.00;-17125.47;5072457;28;20056;-83
2024/01/26 01:22:45;;;;;;;21.85;7.63;;;;;;;-148.88;100.00;-17125.47;5071657;28;20035;-84
2024/01/26 01:25:14;;;;;;;15.80;6.93;;;;;;;-148.88;100.00;-17125.47;5073365;28;20028;-84
2024/01/26 01:27:40;;;;;;;20.55;6.93;;;;;;;-148.88;100.00;-17125.47;5074932;28;20540;-84
2024/01/26 01:30:07;;;;;;;18.05;7.78;;;;;;;-148.88;100.00;-17125.47;5076174;28;20021;-84
2024/01/26 01:32:34;;;;;;;20.17;7.88;;;;;;;-148.88;100.00;-17125.47;5076305;28;20112;-84
2024/01/26 01:34:59;;;;;;;16.95;7.05;;;;;;;-148.88;100.00;-17125.47;5075051;28;20028;-84
2024/01/26 01:37:25;;;;;;;20.98;7.13;;;;;;;-148.88;100.00;-17125.47;5076019;28;20063;-84
2024/01/26 01:39:50;;;;;;;19.92;8.60;;;;;;;-148.88;100.00;-17125.47;5075484;28;20103;-84
2024/01/26 01:42:16;;;;;;;21.23;8.65;;;;;;;-148.88;100.00;-17125.47;5076070;28;20382;-83
2024/01/26 01:44:45;;;;;;;20.50;7.70;;;;;;;-148.88;100.00;-17125.47;5075502;28;20021;-84
2024/01/26 01:47:12;;;;;;;22.52;9.00;;;;;;;-148.88;100.00;-17125.47;5076126;28;20376;-84
2024/01/26 01:49:39;;;;;;;22.42;8.32;;;;;;;-148.88;100.00;-17125.47;5076134;28;20050;-84
2024/01/26 01:52:07;;;;;;;22.70;8.30;;;;;;;-148.88;100.00;-17125.47;5075756;28;20021;-84
2024/01/26 01:54:33;;;;;;;23.02;8.82;;;;;;;-148.88;100.00;-17125.47;5075892;28;20039;-83
2024/01/26 01:57:03;;;;;;;22.23;8.45;;;;;;;-148.88;100.00;-17125.47;5075601;28;20024;-84
2024/01/26 01:59:29;;;;;;;33.25;19.38;;;;;;;-148.88;100.00;-17125.47;5076018;28;20020;-84
2024/01/26 02:01:55;;;;;;;20.95;7.70;;;;;;;-148.88;100.00;-17125.47;5075962;28;20024;-84
2024/01/26 02:04:20;;;;;;;21.30;8.25;;;;;;;-148.88;100.00;-17125.47;5075557;28;20028;-84
2024/01/26 02:07:04;;;;;;;22.65;8.15;;;;;;;-148.88;100.00;-17125.47;5075676;28;20391;-84
2024/01/26 02:09:31;;;;;;;33.25;18.08;;;;;;;-148.88;100.00;-17125.47;5075011;28;20073;-84
2024/01/26 02:11:56;;;;;;;32.97;17.27;;;;;;;-148.88;100.00;-17125.47;5075382;28;20028;-84
2024/01/26 02:14:22;;;;;;;18.55;7.32;;;;;;;-148.88;100.00;-17125.47;5075278;28;20020;-84
2024/01/26 02:16:59;;;;;;;21.17;7.47;;;;;;;-148.88;100.00;-17125.47;5092505;28;20036;-84
2024/01/26 02:19:26;;;;;;;21.58;6.95;;;;;;;-148.88;100.00;-17125.47;5101328;28;20051;-83
2024/01/26 02:21:51;;;;;;;22.95;7.28;;;;;;;-148.88;100.00;-17125.47;5080891;28;20033;-85
2024/01/26 02:24:17;;;;;;;18.63;7.50;;;;;;;-148.88;100.00;-17125.47;5077051;28;20035;-84
2024/01/26 02:26:43;;;;;;;19.08;7.97;;;;;;;-148.88;100.00;-17125.47;5077139;28;20028;-84
2024/01/26 02:29:08;;;;;;;25.48;8.77;;;;;;;-148.88;100.00;-17125.47;5076674;28;20063;-84
2024/01/26 02:31:34;;;;;;;34.80;20.05;;;;;;;-148.88;100.00;-17125.47;5076497;28;20150;-84
2024/01/26 02:33:59;;;;;;;34.50;19.52;;;;;;;-148.88;100.00;-17125.47;5076242;28;20023;-85
2024/01/26 02:36:29;;;;;;;27.92;9.90;;;;;;;-148.88;100.00;-17125.47;5076490;28;20039;-84
2024/01/26 02:38:54;;;;;;;24.30;8.68;;;;;;;-148.88;100.00;-17125.47;5075486;28;20030;-85
2024/01/26 02:41:20;;;;;;;40.28;21.02;;;;;;;-148.88;100.00;-17125.47;5075767;28;20016;-83
2024/01/26 02:43:45;;;;;;;21.75;8.68;;;;;;;-148.88;100.00;-17125.47;5074772;28;20030;-83
2024/01/26 02:46:11;;;;;;;39.35;21.77;;;;;;;-148.88;100.00;-17125.47;5074978;28;20016;-85
2024/01/26 02:48:38;;;;;;;24.13;8.77;;;;;;;-148.88;100.00;-17125.47;5075011;28;20035;-84
2024/01/26 02:51:04;;;;;;;26.08;9.43;;;;;;;-148.88;100.00;-17125.47;5074925;28;20112;-84
2024/01/26 02:53:29;;;;;;;26.42;9.30;;;;;;;-148.88;100.00;-17125.47;5074522;28;20048;-84
2024/01/26 02:55:55;;;;;;;26.20;9.70;;;;;;;-148.88;100.00;-17125.47;5074530;28;20021;-84
2024/01/26 02:58:20;;;;;;;23.52;10.02;;;;;;;-148.88;100.00;-17125.47;5073335;28;20020;-84
2024/01/26 03:00:46;;;;;;;26.85;9.80;;;;;;;-148.88;100.00;-17125.47;5074496;28;20020;-84
2024/01/26 03:03:12;;;;;;;42.30;22.83;;;;;;;-148.88;100.00;-17125.47;5074700;28;20029;-84
2024/01/26 03:05:37;;;;;;;29.38;9.90;;;;;;;-148.88;100.00;-17125.47;5074283;28;20060;-85
2024/01/26 03:08:03;;;;;;;30.02;10.30;;;;;;;-148.88;100.00;-17125.47;5074350;28;20025;-84
2024/01/26 03:10:28;;;;;;;57.30;25.27;;;;;;;-148.88;100.00;-17125.47;5074243;28;20463;-84
2024/01/26 03:12:54;;;;;;;31.02;11.05;;;;;;;-148.88;100.00;-17125.47;5074237;28;20020;-84
2024/01/26 03:15:20;;;;;;;31.45;11.05;;;;;;;-148.88;100.00;-17125.47;5074138;28;20478;-84
2024/01/26 03:17:45;;;;;;;33.50;11.63;;;;;;;-148.88;100.00;-17125.47;5073261;28;20082;-84
2024/01/26 03:20:11;;;;;;;56.65;27.33;;;;;;;-148.88;100.00;-17125.47;5074546;28;20066;-83
2024/01/26 03:22:36;;;;;;;54.67;26.60;;;;;;;-148.88;100.00;-17125.47;5072685;28;20027;-84
2024/01/26 03:25:03;;;;;;;42.28;12.10;;;;;;;-148.88;100.00;-17125.47;5073780;28;20028;-84
2024/01/26 03:27:29;;;;;;;35.15;12.85;;;;;;;-148.88;100.00;-17125.47;5073452;28;20111;-84
2024/01/26 03:29:54;;;;;;;36.50;12.05;;;;;;;-148.88;100.00;-17125.47;5073812;28;20118;-84
2024/01/26 03:32:19;;;;;;;63.20;28.25;;;;;;;-148.88;100.00;-17125.47;5074139;28;20020;-84
2024/01/26 03:34:45;;;;;;;40.42;13.32;;;;;;;-148.88;100.00;-17125.47;5072353;28;20020;-85
2024/01/26 03:37:10;;;;;;;78.95;33.95;;;;;;;-148.88;100.00;-17125.47;5072461;28;20097;-83
2024/01/26 03:39:35;;;;;;;44.45;13.82;;;;;;;-148.88;100.00;-17125.47;5073823;28;20024;-84
2024/01/26 03:42:01;;;;;;;42.10;14.00;;;;;;;-148.88;100.00;-17125.47;5073580;28;20029;-84
2024/01/26 03:44:26;;;;;;;47.95;15.27;;;;;;;-148.88;100.00;-17125.47;5073657;28;20481;-83
2024/01/26 03:46:52;;;;;;;81.43;35.03;;;;;;;-148.88;100.00;-17125.47;5072738;28;20476;-84
2024/01/26 03:49:17;;;;;;;85.15;35.53;;;;;;;-148.88;100.00;-17125.47;5073234;28;20024;-84
2024/01/26 03:51:42;;;;;;;86.60;38.85;;;;;;;-148.88;100.00;-17125.47;5073657;28;20123;-84
2024/01/26 03:54:08;;;;;;;49.55;16.65;;;;;;;-148.88;100.00;-17125.47;5073543;28;20031;-84
2024/01/26 03:56:33;;;;;;;47.83;16.88;;;;;;;-148.88;100.00;-17125.47;5073531;28;20024;-84
2024/01/26 03:58:58;;;;;;;47.63;16.17;;;;;;;-148.88;100.00;-17125.47;5073743;28;20025;-84
2024/01/26 04:01:24;;;;;;;88.72;37.15;;;;;;;-148.88;100.00;-17125.47;5073398;28;20434;-84
2024/01/26 04:03:49;;;;;;;83.00;36.78;;;;;;;-148.88;100.00;-17125.47;5073551;28;20406;-84
2024/01/26 04:06:14;;;;;;;50.03;16.15;;;;;;;-148.88;100.00;-17125.47;5073322;28;20046;-84
2024/01/26 04:08:40;;;;;;;61.17;17.15;;;;;;;-148.88;100.00;-17125.47;5073591;28;20020;-83
2024/01/26 04:11:05;;;;;;;87.57;38.67;;;;;;;-148.88;100.00;-17125.47;5073713;28;20029;-84
2024/01/26 04:13:31;;;;;;;87.00;37.90;;;;;;;-148.88;100.00;-17125.47;5073323;28;20505;-84
2024/01/26 04:16:02;;;;;;;64.38;17.45;;;;;;;-148.88;100.00;-17125.47;5073462;28;20029;-84
2024/01/26 04:18:27;;;;;;;60.55;17.00;;;;;;;-148.88;100.00;-17125.47;5085669;28;20025;-84
2024/01/26 04:20:52;;;;;;;83.00;38.53;;;;;;;-148.88;100.00;-17125.47;5098791;28;20055;-84
2024/01/26 04:23:18;;;;;;;59.97;19.08;;;;;;;-148.88;100.00;-17125.47;5084995;28;20032;-84
2024/01/26 04:25:48;;;;;;;52.55;16.67;;;;;;;-148.88;100.00;-17125.47;5074412;28;20043;-84
2024/01/26 04:28:14;;;;;;;54.50;17.30;;;;;;;-148.88;100.00;-17125.47;5072208;28;20150;-84
2024/01/26 04:30:42;;;;;;;58.95;18.42;;;;;;;-148.88;100.00;-17125.47;5075695;28;20154;-85
2024/01/26 04:33:16;;;;;;;82.53;38.58;;;;;;;-148.88;100.00;-17125.47;5075677;28;20077;-85
2024/01/26 04:35:41;;;;;;;86.78;39.38;;;;;;;-148.88;100.00;-17125.47;5076063;28;20023;-85
2024/01/26 04:38:13;;;;;;;53.88;18.08;;;;;;;-148.88;100.00;-17125.47;5075338;28;20390;-84
2024/01/26 04:41:01;;;;;;;48.60;16.25;;;;;;;-148.88;100.00;-17125.47;5073192;28;20036;-85
2024/01/26 04:44:11;;;;;;;49.03;16.77;;;;;;;-148.88;100.00;-17125.47;5072271;28;20051;-85
2024/01/26 04:46:23;;;;;;;54.65;17.45;;;;;;;-148.88;100.00;-17125.47;5067873;28;20028;-85
2024/01/26 04:48:58;;;;;;;87.57;40.80;;;;;;;-148.88;100.00;-17125.47;5073290;28;20494;-84
2024/01/26 04:51:23;;;;;;;51.55;18.42;;;;;;;-148.88;100.00;-17125.47;5073212;28;20475;-85
2024/01/26 04:53:54;;;;;;;88.20;40.20;;;;;;;-148.88;100.00;-17125.47;5072232;28;20155;-85
2024/01/26 04:56:21;;;;;;;48.60;18.90;;;;;;;-148.88;100.00;-17125.47;5075458;28;20028;-85
2024/01/26 04:58:47;;;;;;;52.78;17.17;;;;;;;-148.88;100.00;-17125.47;5073194;28;20479;-83
2024/01/26 05:01:12;;;;;;;59.80;18.92;;;;;;;-148.88;100.00;-17125.47;5076882;28;20020;-85
2024/01/26 05:03:37;;;;;;;85.75;40.78;;;;;;;-148.88;100.00;-17125.47;5076645;28;20029;-84
2024/01/26 05:06:04;;;;;;;52.35;18.40;;;;;;;-148.88;100.00;-17125.47;5077274;28;20026;-85
2024/01/26 05:08:29;;;;;;;83.13;40.75;;;;;;;-148.88;100.00;-17125.47;5076002;28;20032;-84
2024/01/26 05:10:55;;;;;;;54.88;19.42;;;;;;;-148.88;100.00;-17125.47;5076551;28;20020;-84
2024/01/26 05:13:20;;;;;;;79.55;41.08;;;;;;;-148.88;100.00;-17125.47;5076409;28;20024;-84
2024/01/26 05:15:45;;;;;;;58.72;21.30;;;;;;;-148.88;100.00;-17125.47;5074957;28;20126;-84
2024/01/26 05:18:10;;;;;;;78.82;41.83;;;;;;;-148.88;100.00;-17125.47;5076307;28;20020;-84
2024/01/26 05:20:36;;;;;;;79.63;40.05;;;;;;;-148.88;100.00;-17125.47;5074884;28;20108;-83
2024/01/26 05:23:01;;;;;;;77.40;39.53;;;;;;;-148.88;100.00;-17125.47;5076694;28;20028;-83
2024/01/26 05:25:26;;;;;;;79.38;40.50;;;;;;;-148.88;100.00;-17125.47;5076399;28;20059;-85
2024/01/26 05:27:52;;;;;;;56.50;19.05;;;;;;;-148.88;100.00;-17125.47;5076012;28;20025;-85
2024/01/26 05:30:17;;;;;;;78.78;41.78;;;;;;;-148.88;100.00;-17125.47;5076112;28;20394;-84
2024/01/26 05:32:43;;;;;;;47.63;17.45;;;;;;;-148.88;100.00;-17125.47;5075742;28;20074;-85
2024/01/26 05:35:12;;;;;;;57.42;18.98;;;;;;;-148.88;100.00;-17125.47;5076029;28;20116;-85
2024/01/26 05:37:38;;;;;;;59.22;19.25;;;;;;;-148.88;100.00;-17125.47;5076219;28;20028;-84
2024/01/26 05:40:07;;;;;;;70.07;38.33;;;;;;;-148.88;100.00;-17125.47;5075762;28;20031;-84
2024/01/26 05:42:35;;;;;;;75.05;39.38;;;;;;;-148.88;100.00;-17125.47;5074557;28;20028;-84
2024/01/26 05:45:02;;;;;;;54.13;18.45;;;;;;;-148.88;100.00;-17125.47;5074470;28;20048;-86
2024/01/26 05:47:28;;;;;;;69.93;37.53;;;;;;;-148.88;100.00;-17125.47;5075586;28;20482;-87
2024/01/26 05:49:53;;;;;;;47.17;17.33;;;;;;;-148.88;100.00;-17125.47;5075265;28;20031;-85
2024/01/26 05:52:28;;;;;;;44.67;16.58;;;;;;;-148.88;100.00;-17125.47;5074594;28;20115;-86
2024/01/26 05:54:53;;;;;;;61.25;34.47;;;;;;;-148.88;100.00;-17125.47;5074276;28;20025;-87
2024/01/26 05:57:19;;;;;;;40.33;14.88;;;;;;;-148.88;100.00;-17125.47;5073794;28;20035;-87
2024/01/26 05:59:44;;;;;;;39.33;15.98;;;;;;;-148.88;100.00;-17125.47;5074181;28;20120;-86
2024/01/26 06:02:12;;;;;;;52.08;31.38;;;;;;;-148.88;100.00;-17125.47;5075456;28;20020;-87
2024/01/26 06:04:37;;;;;;;39.38;14.52;;;;;;;-148.88;100.00;-17125.47;5069657;22;20102;-82
2024/01/26 06:07:03;;;;;;;47.13;28.30;;;;;;;-148.88;100.00;-17125.47;5071402;28;20029;-83
2024/01/26 06:09:28;;;;;;;35.00;12.60;;;;;;;-148.88;100.00;-17125.47;5065370;28;20036;-83
2024/01/26 06:11:54;;;;;;;36.80;23.23;;;;;;;-148.88;100.00;-17125.47;5064887;28;20021;-83
2024/01/26 06:14:19;;;;;;;25.02;9.57;;;;;;;-148.88;100.00;-17125.47;5066828;28;20021;-83
2024/01/26 06:16:48;;;;;;;29.92;20.67;;;;;;;-148.88;100.00;-17125.47;5065372;28;20025;-83
2024/01/26 06:19:13;;;;;;;22.08;9.95;;;;;;;-148.88;100.00;-17125.47;5066571;28;20032;-83
2024/01/26 06:21:38;;;;;;;28.25;18.33;;;;;;;-148.88;100.00;-17125.47;5066055;28;20017;-82
2024/01/26 06:24:04;;;;;;;27.90;19.58;;;;;;;-148.88;100.00;-17125.47;5064490;28;20029;-83
2024/01/26 06:26:29;;;;;;;23.40;10.20;;;;;;;-148.88;100.00;-17125.47;5068135;28;20032;-83
2024/01/26 06:28:55;;;;;;;22.10;15.60;;;;;;;-148.88;100.00;-17125.47;5068265;28;20033;-83
2024/01/26 06:31:25;;;;;;;17.65;7.05;;;;;;;-148.88;100.00;-17125.47;5067505;28;20535;-83
2024/01/26 06:33:50;;;;;;;21.30;14.93;;;;;;;-148.88;100.00;-17125.47;5066326;28;20024;-83
2024/01/26 06:36:16;;;;;;;18.45;8.15;;;;;;;-148.88;100.00;-17125.47;5066977;28;20108;-82
2024/01/26 06:38:42;;;;;;;20.13;14.07;;;;;;;-148.88;100.00;-17125.47;5055066;28;20052;-82
2024/01/26 06:41:07;;;;;;;16.85;7.85;;;;;;;-148.88;100.00;-17125.47;5057753;28;20025;-82
2024/01/26 06:43:33;;;;;;;18.77;8.27;;;;;;;-148.88;100.00;-17125.47;5061614;28;20040;-82
2024/01/26 06:45:58;;;;;;;23.77;15.15;;;;;;;-148.88;100.00;-17125.47;5067105;28;20032;-82
2024/01/26 06:48:26;;;;;;;18.85;8.20;;;;;;;-148.88;100.00;-17125.47;5068546;28;20345;-82
2024/01/26 06:50:51;;;;;;;22.20;14.90;;;;;;;-148.88;100.00;-17125.47;5067315;28;20017;-82
2024/01/26 06:53:17;;;;;;;18.85;13.65;;;;;;;-148.88;100.00;-17125.47;5067354;28;20027;-82
2024/01/26 06:55:42;;;;;;;15.35;7.55;;;;;;;-148.88;100.00;-17125.47;5068694;28;20037;-82
2024/01/26 06:58:08;;;;;;;20.90;7.90;;;;;;;-148.88;100.00;-17125.47;5068358;28;20052;-82
2024/01/26 07:00:34;;;;;;;18.35;7.35;;;;;;;-148.88;100.00;-17125.47;5066748;28;20035;-82
2024/01/26 07:02:59;;;;;;;18.50;13.73;;;;;;;-148.88;100.00;-17125.47;5064642;28;20025;-82
2024/01/26 07:05:24;;;;;;;16.25;7.63;;;;;;;-148.88;100.00;-17125.47;5067233;28;20055;-82
2024/01/26 07:07:50;;;;;;;19.77;12.45;;;;;;;-148.88;100.00;-17125.47;5067742;28;20032;-81
2024/01/26 07:10:15;;;;;;;19.20;6.97;;;;;;;-148.88;100.00;-17125.47;5065806;28;20082;-81
2024/01/26 07:12:41;;;;;;;13.73;7.38;;;;;;;-148.88;100.00;-17125.47;5065625;28;20088;-81
2024/01/26 07:15:09;;;;;;;17.30;12.80;;;;;;;-148.88;100.00;-17125.47;5054411;28;20551;-81
2024/01/26 07:17:35;;;;;;;18.33;12.73;;;;;;;-148.88;100.00;-17125.47;5066671;28;20025;-81
2024/01/26 07:20:00;;;;;;;15.80;7.32;;;;;;;-148.88;100.00;-17125.47;5067051;28;20029;-81
2024/01/26 07:22:25;;;;;;;15.52;12.20;;;;;;;-148.88;100.00;-17125.47;5065642;28;20116;-82
2024/01/26 07:24:51;;;;;;;14.90;11.35;;;;;;;-148.88;100.00;-17125.47;5067542;28;20499;-81
2024/01/26 07:27:16;;;;;;;16.20;11.60;;;;;;;-148.88;100.00;-17125.47;5065532;28;20063;-81
2024/01/26 07:29:42;;;;;;;13.23;5.68;;;;;;;-148.88;100.00;-17125.47;5066475;28;20395;-81
2024/01/26 07:32:07;;;;;;;12.98;5.97;;;;;;;-148.88;100.00;-17125.47;5066408;28;20025;-82
2024/01/26 07:34:32;;;;;;;15.73;11.50;;;;;;;-148.88;100.00;-17125.47;5066141;28;20027;-82
2024/01/26 07:36:58;;;;;;;11.75;5.65;;;;;;;-148.88;100.00;-17125.47;5066888;28;20033;-83
2024/01/26 07:39:23;;;;;;;15.55;11.00;;;;;;;-148.88;100.00;-17125.47;5066105;28;20047;-81
2024/01/26 07:41:48;;;;;;;15.05;10.65;;;;;;;-148.88;100.00;-17125.47;5066021;28;20464;-82
2024/01/26 07:44:14;;;;;;;14.02;6.45;;;;;;;-148.88;100.00;-17125.47;5068096;28;20059;-80
2024/01/26 07:46:41;;;;;;;15.70;10.75;;;;;;;-148.88;100.00;-17125.47;5066266;28;20052;-82
2024/01/26 07:49:06;;;;;;;12.70;10.07;;;;;;;-148.88;100.00;-17125.47;5061115;28;20052;-80
2024/01/26 07:51:32;;;;;;;15.32;5.32;;;;;;;-148.88;100.00;-17125.47;5062908;28;20203;-81
2024/01/26 07:53:57;;;;;;;14.13;10.25;;;;;;;-148.88;100.00;-17125.47;5065394;28;20021;-82
2024/01/26 07:56:22;;;;;;;17.08;11.90;;;;;;;-148.88;100.00;-17125.47;5065711;28;20021;-83
2024/01/26 07:58:48;;;;;;;13.85;6.68;;;;;;;-148.88;100.00;-17125.47;5068137;28;20025;-81
2024/01/26 08:01:14;;;;;;;14.35;11.07;;;;;;;-148.88;100.00;-17125.47;5068599;28;20025;-81
2024/01/26 08:03:39;;;;;;;16.52;11.07;;;;;;;-148.88;100.00;-17125.47;5063689;28;20052;-81
2024/01/26 08:06:05;;;;;;;16.00;11.65;;;;;;;-148.88;100.00;-17125.47;5059753;28;20029;-81
2024/01/26 08:08:31;;;;;;;14.82;11.68;;;;;;;-148.88;100.00;-17125.47;5056601;28;20024;-81
2024/01/26 08:10:57;;;;;;;15.93;6.15;;;;;;;-148.88;100.00;-17125.47;5054566;28;20074;-81
2024/01/26 08:13:22;;;;;;;16.75;6.13;;;;;;;-148.88;100.00;-17125.47;5055924;28;20388;-81
2024/01/26 08:15:48;;;;;;;15.25;6.45;;;;;;;-148.88;100.00;-17125.47;5057168;28;20054;-81
2024/01/26 08:18:14;;;;;;;13.05;6.40;;;;;;;-148.88;100.00;-17125.47;5056200;28;20032;-81
2024/01/26 08:20:40;;;;;;;18.85;12.95;;;;;;;-148.88;100.00;-17125.47;5056008;28;20021;-81
2024/01/26 08:23:05;;;;;;;19.90;12.13;;;;;;;-148.88;100.00;-17125.47;5073178;28;20091;-82
2024/01/26 08:25:32;;;;;;;14.10;6.50;;;;;;;-148.88;100.00;-17125.47;5058854;28;20071;-81
2024/01/26 08:27:57;;;;;;;18.88;11.98;;;;;;;-148.88;100.00;-17125.47;5053232;28;20020;-82
2024/01/26 08:30:23;;;;;;;19.77;12.25;;;;;;;-148.88;100.00;-17125.47;5054090;28;20020;-82
2024/01/26 08:32:49;;;;;;;15.15;11.20;;;;;;;-148.88;100.00;-17125.47;5053846;28;20412;-82
2024/01/26 08:35:15;;;;;;;13.40;6.13;;;;;;;-148.88;100.00;-17125.47;5054685;28;20393;-82
2024/01/26 08:37:41;;;;;;;14.07;5.72;;;;;;;-148.88;100.00;-17125.47;5054297;28;20025;-82
2024/01/26 08:40:07;;;;;;;17.63;11.38;;;;;;;-148.88;100.00;-17125.47;5054238;28;20021;-82
2024/01/26 08:42:33;;;;;;;13.10;6.35;;;;;;;-148.88;100.00;-17125.47;5053689;28;20032;-82
2024/01/26 08:44:59;;;;;;;12.90;5.90;;;;;;;-148.88;100.00;-17125.47;5054446;28;20057;-82
2024/01/26 08:47:24;;;;;;;18.70;11.32;;;;;;;-148.88;100.00;-17125.47;5055821;28;20103;-82
2024/01/26 08:49:49;;;;;;;12.43;5.75;;;;;;;-148.88;100.00;-17125.47;5055668;28;20112;-81
2024/01/26 08:52:15;;;;;;;15.10;9.80;;;;;;;-148.88;100.00;-17125.47;5055603;28;20083;-82
2024/01/26 08:54:40;;;;;;;14.25;9.93;;;;;;;-148.88;100.00;-17125.47;5054087;28;20017;-82
2024/01/26 08:57:06;;;;;;;11.50;4.53;;;;;;;-148.88;100.00;-17125.47;5053684;28;20025;-82
2024/01/26 08:59:31;;;;;;;15.43;10.05;;;;;;;-148.88;100.00;-17125.47;5056961;28;20056;-82
2024/01/26 09:01:56;;;;;;;13.73;4.93;;;;;;;-148.88;100.00;-17125.47;5054847;28;20028;-82
2024/01/26 09:04:22;;;;;;;13.10;8.93;;;;;;;-148.88;100.00;-17125.47;5052971;28;20128;-82
2024/01/26 09:06:47;;;;;;;11.80;8.82;;;;;;;-148.88;100.00;-17125.47;5052898;28;20085;-82
2024/01/26 09:09:13;;;;;;;12.77;9.20;;;;;;;-148.88;100.00;-17125.47;5051624;28;20028;-82
2024/01/26 09:11:39;;;;;;;8.98;4.63;;;;;;;-148.88;100.00;-17125.47;5053796;28;20484;-82
2024/01/26 09:14:05;;;;;;;11.77;8.13;;;;;;;-148.88;100.00;-17125.47;5051823;28;20031;-82
2024/01/26 09:16:30;;;;;;;11.90;8.90;;;;;;;-148.88;100.00;-17125.47;5054194;28;20021;-82
2024/01/26 09:18:58;;;;;;;11.52;8.88;;;;;;;-148.88;100.00;-17125.47;5051810;28;20023;-82
2024/01/26 09:21:24;;;;;;;9.18;4.22;;;;;;;-148.88;100.00;-17125.47;5053649;28;20463;-82
2024/01/26 09:23:50;;;;;;;9.40;7.90;;;;;;;-148.88;100.00;-17125.47;5053643;28;20039;-82
2024/01/26 09:26:15;;;;;;;9.68;7.68;;;;;;;-148.88;100.00;-17125.47;5053353;28;20017;-82
2024/01/26 09:28:41;;;;;;;11.18;8.55;;;;;;;-148.88;100.00;-17125.47;5052275;28;20027;-82
2024/01/26 09:31:06;;;;;;;10.27;8.65;;;;;;;-148.88;100.00;-17125.47;5054069;28;20017;-82
2024/01/26 09:33:32;;;;;;;13.85;8.85;;;;;;;-148.88;100.00;-17125.47;5052615;28;20052;-82
2024/01/26 09:35:58;;;;;;;8.65;4.60;;;;;;;-148.88;100.00;-17125.47;5057368;28;20575;-82
2024/01/26 09:38:24;;;;;;;9.70;7.70;;;;;;;-148.88;100.00;-17125.47;5052705;28;20128;-82
2024/01/26 09:40:49;;;;;;;8.15;7.35;;;;;;;-148.88;100.00;-17125.47;5052030;28;20025;-81
2024/01/26 09:43:15;;;;;;;10.38;8.10;;;;;;;-148.88;100.00;-17125.47;5051234;28;20021;-81
2024/01/26 09:45:40;;;;;;;6.22;3.78;;;;;;;-148.88;100.00;-17125.47;5055389;28;20021;-82
2024/01/26 09:48:06;;;;;;;9.00;7.43;;;;;;;-148.88;100.00;-17125.47;5065392;28;20067;-82
2024/01/26 09:50:32;;;;;;;9.43;4.30;;;;;;;-148.88;100.00;-17125.47;5065210;28;20056;-82
2024/01/26 09:52:58;;;;;;;8.80;7.53;;;;;;;-148.88;100.00;-17125.47;5061407;28;20036;-82
2024/01/26 09:55:25;;;;;;;8.27;6.70;;;;;;;-148.88;100.00;-17125.47;5062412;28;20021;-82
2024/01/26 09:57:51;;;;;;;4.82;3.40;;;;;;;-148.88;100.00;-17125.47;5062727;28;20483;-82
2024/01/26 10:00:17;;;;;;;7.78;4.18;;;;;;;-148.88;100.00;-17125.47;5062736;28;20017;-82
2024/01/26 10:02:43;;;;;;;6.63;4.10;;;;;;;-148.88;100.00;-17125.47;5060467;28;20040;-82
2024/01/26 10:05:09;;;;;;;8.32;7.15;;;;;;;-148.88;100.00;-17125.47;5061716;28;20056;-82
2024/01/26 10:07:34;;;;;;;7.20;3.70;;;;;;;-148.88;100.00;-17125.47;5060639;28;20029;-82
2024/01/26 10:10:00;;;;;;;6.13;3.63;;;;;;;-148.88;100.00;-17125.47;5060056;28;20028;-82
2024/01/26 10:12:25;;;;;;;5.85;3.50;;;;;;;-148.88;100.00;-17125.47;5058844;28;20021;-82
2024/01/26 10:15:10;;;;;;;6.85;6.25;;;;;;;-148.88;100.00;-17125.47;5055960;28;20041;-82
2024/01/26 10:17:37;;;;;;;7.00;6.30;;;;;;;-148.88;100.00;-17125.47;5054122;28;20049;-82
2024/01/26 10:20:09;;;;;;;6.70;4.00;;;;;;;-148.88;100.00;-17125.47;5055274;28;20021;-82
2024/01/26 10:22:36;;;;;;;7.82;7.05;;;;;;;-148.88;100.00;-17125.47;5054131;28;20033;-82
2024/01/26 10:25:03;;;;;;;7.18;3.92;;;;;;;-148.88;100.00;-17125.47;5085508;23;20388;-86
2024/01/26 10:27:30;;;;;;;8.68;7.80;;;;;;;-148.88;100.00;-17125.47;5073940;28;20089;-85
2024/01/26 10:29:55;;;;;;;8.73;4.93;;;;;;;-148.88;100.00;-17125.47;5075201;28;20433;-85
2024/01/26 10:32:32;;;;;;;9.55;8.32;;;;;;;-148.88;100.00;-17125.47;5076320;28;20467;-86
2024/01/26 10:34:59;;;;;;;7.63;4.75;;;;;;;-148.88;100.00;-17125.47;5075337;28;20043;-86
2024/01/26 10:37:34;;;;;;;9.93;8.93;;;;;;;-148.88;100.00;-17125.47;5074232;28;20024;-86
2024/01/26 10:40:01;;;;;;;8.27;5.25;;;;;;;-148.88;100.00;-17125.47;5074251;28;20036;-86
2024/01/26 10:42:30;;;;;;;8.98;8.07;;;;;;;-148.88;100.00;-17125.47;5075572;28;20070;-86
2024/01/26 10:45:00;;;;;;;9.52;8.52;;;;;;;-148.88;100.00;-17125.47;5073297;28;20020;-87
2024/01/26 10:47:26;;;;;;;11.80;9.95;;;;;;;-148.88;100.00;-17125.47;5074964;28;20020;-86